Stations météo

réclame
Mon MeteoGroup
Villardeciervos, Espagne (8125): Température de l'air & dewpoint: 19.04.2018 14:00:00 - 25.04.2018 14:00:00 (CEST)Villardeciervos, Espagne (8125): Vitesse du vent & gusts: 19.04.2018 14:00:00 - 25.04.2018 14:00:00 (CEST)Villardeciervos, Espagne (8125): Direction du vent: 19.04.2018 14:00:00 - 25.04.2018 14:00:00 (CEST)Villardeciervos, Espagne (8125): visibility: 19.04.2018 14:00:00 - 25.04.2018 14:00:00 (CEST)Villardeciervos, Espagne (8125): Ensoleillement: 19.04.2018 14:00:00 - 25.04.2018 14:00:00 (CEST)Villardeciervos, Espagne (8125): Quantités de précipitations: 19.04.2018 14:00:00 - 25.04.2018 14:00:00 (CEST)
Date & Time tt [°C] td [°C] ff [km/h] ff [knt] fx [km/h] fx [knt] dd vv [km] sd [min] rr [mm]
25.04.2018 14:00:00 - - - - - - - - - -
25.04.2018 13:00:00 24,4 10,6 5 3 16 8 NNE 20 60 0,0
25.04.2018 12:00:00 22,1 9,6 6 3 16 8 ENE 20 60 0,0
25.04.2018 11:00:00 19,4 9,6 6 3 14 7 SE 20 60 0,0
25.04.2018 10:00:00 15,8 9,9 3 1 9 5 NW 20 60 0,0
25.04.2018 09:00:00 11,4 7,7 4 2 9 5 SE 20 57 0,0
25.04.2018 08:00:00 7,3 5,3 5 3 8 4 SSE 20 0 -
25.04.2018 07:00:00 7,8 5,6 4 2 8 4 SSE 20 0 0,0
25.04.2018 06:00:00 8,4 5,6 3 1 8 4 NNE 20 0 0,0
25.04.2018 05:00:00 9,4 5,8 3 2 10 5 NW 20 0 0,0
25.04.2018 04:00:00 9,5 6,5 4 2 7 4 S 20 0 0,0
25.04.2018 03:00:00 10,7 6,7 4 2 12 6 ESE 20 0 0,0
25.04.2018 02:00:00 11,5 7,0 9 5 12 7 S 20 0 -
25.04.2018 01:00:00 12,7 7,6 2 1 8 4 NW 20 0 0,0
25.04.2018 00:00:00 14,5 7,6 2 1 10 5 ESE 20 0 0,0
24.04.2018 23:00:00 17,5 8,1 7 4 15 8 WSW 20 0 0,0
24.04.2018 22:00:00 18,7 8,1 8 5 15 8 S 20 0 0,0
24.04.2018 21:00:00 20,5 7,8 8 4 23 12 S 20 19 0,0
24.04.2018 20:00:00 23,8 6,5 9 5 25 13 S 20 60 -
24.04.2018 19:00:00 25,0 6,2 11 6 26 14 S 20 60 0,0
24.04.2018 18:00:00 26,5 4,8 5 3 21 11 SSW 17 58 0,0
24.04.2018 17:00:00 25,3 6,5 3 1 19 10 SW 20 26 0,0
24.04.2018 16:00:00 23,9 6,2 6 3 20 11 ENE 20 42 0,0
24.04.2018 15:00:00 24,9 6,1 9 5 23 12 E 20 60 0,0
24.04.2018 14:00:00 23,9 7,1 7 4 20 11 NE 20 60 -
24.04.2018 13:00:00 22,2 8,7 8 4 22 12 ENE 20 60 0,0
24.04.2018 12:00:00 20,2 9,7 7 4 24 13 E 20 60 0,0
24.04.2018 11:00:00 17,9 10,0 6 3 16 9 E 19 60 0,0
24.04.2018 10:00:00 15,5 8,9 8 4 15 8 E 20 60 0,0
24.04.2018 09:00:00 11,8 8,5 2 1 9 5 SE 20 55 0,0
24.04.2018 08:00:00 7,9 6,2 4 2 8 5 S 20 0 -
24.04.2018 07:00:00 7,4 5,3 2 1 5 3 SSW 20 0 0,0
24.04.2018 06:00:00 8,1 6,1 3 1 8 4 S 20 0 0,0
24.04.2018 05:00:00 8,6 6,2 1 1 5 3 S 20 0 0,0
24.04.2018 04:00:00 10,0 7,3 3 1 8 4 SE 20 0 0,0
24.04.2018 03:00:00 9,6 6,7 3 2 5 3 SSW 20 0 0,0
24.04.2018 02:00:00 11,1 7,6 2 1 6 3 WSW 20 0 -
24.04.2018 01:00:00 11,6 7,8 3 2 10 5 SSW 20 0 0,0
24.04.2018 00:00:00 13,4 8,0 4 2 9 5 S 20 0 0,0
23.04.2018 23:00:00 13,9 8,5 6 3 15 8 SE 20 0 0,0
23.04.2018 22:00:00 16,3 8,8 4 2 11 6 NNW 20 0 0,0
23.04.2018 21:00:00 19,1 8,4 2 1 21 11 SSW 20 0 0,0
23.04.2018 20:00:00 22,0 6,2 9 5 29 16 ESE 20 55 -
23.04.2018 19:00:00 23,1 7,6 13 7 29 15 SE 20 60 0,0
23.04.2018 18:00:00 23,8 7,4 13 7 29 16 E 20 60 0,0
23.04.2018 17:00:00 24,3 7,0 9 5 27 15 E 20 60 0,0
23.04.2018 16:00:00 24,1 5,9 11 6 29 16 ESE 20 60 0,0
23.04.2018 15:00:00 23,8 7,4 9 5 26 14 E 20 60 0,0
23.04.2018 14:00:00 22,4 6,2 9 5 26 14 E 20 60 -
23.04.2018 13:00:00 20,6 6,8 12 6 22 12 E 20 60 0,0
23.04.2018 12:00:00 18,5 8,1 7 4 16 9 ESE 20 60 0,0
23.04.2018 11:00:00 16,2 9,2 4 2 13 7 E 20 60 0,0
23.04.2018 10:00:00 12,8 8,3 1 1 7 4 ESE 20 60 0,0
23.04.2018 09:00:00 9,0 7,1 2 1 7 4 NW 20 51 0,0
23.04.2018 08:00:00 5,8 3,6 1 1 12 7 ENE 20 0 -
23.04.2018 07:00:00 6,9 5,6 6 4 13 7 S 20 0 0,0
23.04.2018 06:00:00 5,7 4,1 3 2 15 8 SW 20 0 0,0
23.04.2018 05:00:00 7,1 5,8 13 7 23 12 WNW 20 0 0,0
23.04.2018 04:00:00 6,3 4,5 3 1 5 3 W 20 0 0,0
23.04.2018 03:00:00 7,4 5,0 3 2 11 6 SW 20 0 0,0
23.04.2018 02:00:00 7,2 5,0 6 4 10 5 S 20 0 -
23.04.2018 01:00:00 8,5 5,6 3 2 8 5 ENE 20 0 0,0
23.04.2018 00:00:00 9,7 5,9 4 2 10 6 W 20 0 0,0
22.04.2018 23:00:00 11,1 6,4 4 2 8 4 S 20 0 0,0
22.04.2018 22:00:00 13,3 7,3 5 3 11 6 S 20 0 0,0
22.04.2018 21:00:00 16,0 8,0 7 4 10 5 WNW 20 24 0,0
22.04.2018 20:00:00 18,9 6,7 6 3 14 8 E 20 60 -
22.04.2018 19:00:00 18,9 7,0 3 2 13 7 E 20 44 0,0
22.04.2018 18:00:00 17,1 7,7 6 4 20 11 E 20 0 0,0
22.04.2018 17:00:00 16,9 8,1 11 6 30 16 E 20 0 0,0
22.04.2018 16:00:00 17,5 7,8 21 11 34 18 SSE 20 7 0,0
22.04.2018 15:00:00 19,8 7,8 10 5 21 12 NE 20 59 0,0
22.04.2018 14:00:00 18,7 9,2 8 4 19 11 ENE 20 59 -
22.04.2018 13:00:00 16,3 9,0 7 4 18 10 NE 20 38 0,0
22.04.2018 12:00:00 13,4 8,4 6 3 18 10 N 20 0 0,0
22.04.2018 11:00:00 11,7 8,1 4 2 8 5 NNE 20 0 0,0
22.04.2018 10:00:00 10,6 7,8 3 2 6 4 E 20 0 0,0
22.04.2018 09:00:00 8,6 6,5 4 2 6 4 SSE 19 0 0,0
22.04.2018 08:00:00 8,4 6,5 4 2 9 5 SE 20 0 -
22.04.2018 07:00:00 7,6 5,8 7 4 12 7 SE 18 0 0,0
22.04.2018 06:00:00 8,4 6,7 7 4 11 6 WNW 20 0 0,0
22.04.2018 05:00:00 7,7 5,6 2 1 10 5 NNW 19 0 0,0
22.04.2018 04:00:00 7,2 5,5 6 3 9 5 S 20 0 0,0
22.04.2018 03:00:00 6,5 4,3 3 2 6 3 SSE 20 0 0,0
22.04.2018 02:00:00 7,2 4,8 3 2 13 7 NNW 20 0 -
22.04.2018 01:00:00 8,3 5,5 2 1 7 4 SSE 20 0 0,0
22.04.2018 00:00:00 10,5 6,8 1 1 10 5 SW 20 0 0,0
21.04.2018 23:00:00 12,2 7,8 4 2 8 4 SSW 20 0 0,0
21.04.2018 22:00:00 13,0 8,3 4 2 9 5 NNE 20 0 0,0
21.04.2018 21:00:00 14,3 8,0 5 3 14 7 SW 20 0 0,0
21.04.2018 20:00:00 15,9 7,1 8 5 16 9 SW 20 0 -
21.04.2018 19:00:00 16,2 6,8 5 3 22 12 SW 20 0 0,0
21.04.2018 18:00:00 16,3 7,3 11 6 27 15 S 20 2 0,0
21.04.2018 17:00:00 17,6 6,1 9 5 25 13 SE 20 10 0,0
21.04.2018 16:00:00 16,0 5,9 16 9 35 19 E 20 0 0,0
21.04.2018 15:00:00 15,5 6,2 13 7 29 16 E 20 0 0,0
21.04.2018 14:00:00 15,0 6,8 10 6 22 12 E 20 0 -
21.04.2018 13:00:00 14,6 6,2 10 6 21 11 E 20 0 0,0
21.04.2018 12:00:00 14,1 6,4 10 5 22 12 E 20 0 0,0
21.04.2018 11:00:00 13,9 6,5 10 6 20 11 E 20 55 0,0
21.04.2018 10:00:00 12,2 6,2 6 3 15 8 ENE 20 58 0,0
21.04.2018 09:00:00 8,7 5,6 1 1 6 3 S 20 38 0,0
21.04.2018 08:00:00 5,4 3,0 3 2 6 4 WNW 20 0 -
21.04.2018 07:00:00 6,2 3,6 4 2 7 4 S 20 0 0,0
21.04.2018 06:00:00 6,4 3,4 1 1 5 3 E 20 0 0,0
21.04.2018 05:00:00 6,9 3,0 4 2 6 3 S 20 0 0,0
21.04.2018 04:00:00 8,2 3,6 3 1 6 3 S 20 0 0,0
21.04.2018 03:00:00 9,4 3,8 3 2 10 5 SE 20 0 0,0
21.04.2018 02:00:00 11,7 4,5 3 2 29 15 NNW 20 0 -
21.04.2018 01:00:00 14,5 4,1 19 11 33 18 SE 20 0 0,0
21.04.2018 00:00:00 14,2 4,5 15 8 29 15 SSE 20 0 0,0
20.04.2018 23:00:00 12,9 4,8 3 2 10 6 NW 20 0 0,0
20.04.2018 22:00:00 14,4 4,6 5 3 18 10 S 20 0 0,0
20.04.2018 21:00:00 17,0 4,3 11 6 24 13 SSE 20 12 0,0
20.04.2018 20:00:00 19,8 2,1 15 8 33 18 ESE 20 60 -
20.04.2018 19:00:00 20,1 2,5 22 12 41 22 SE 20 49 0,0
20.04.2018 18:00:00 21,3 3,9 16 9 40 22 E 20 60 0,0
20.04.2018 17:00:00 21,0 2,3 24 13 50 27 E 20 60 0,0
20.04.2018 16:00:00 20,8 2,1 22 12 43 23 E 20 60 0,0
20.04.2018 15:00:00 20,4 4,8 16 8 41 22 ENE 20 60 0,0
20.04.2018 14:00:00 19,3 5,0 22 12 48 26 ENE 20 60 -
20.04.2018 13:00:00 18,5 6,4 17 9 41 22 ENE 20 60 0,0
20.04.2018 12:00:00 17,2 5,8 18 10 34 18 E 20 60 0,0
20.04.2018 11:00:00 15,3 6,5 15 8 30 16 E 20 60 0,0
20.04.2018 10:00:00 12,8 7,0 8 5 16 8 E 20 60 0,0
20.04.2018 09:00:00 10,1 6,7 2 1 5 3 S 20 48 0,0
20.04.2018 08:00:00 7,5 5,0 0 0 5 3 N 20 0 -
20.04.2018 07:00:00 7,9 5,9 1 1 7 4 ENE 20 0 0,0
20.04.2018 06:00:00 6,0 3,4 4 2 8 5 ESE 20 0 0,0
20.04.2018 05:00:00 7,0 3,9 0 0 6 3 N 20 0 0,0
20.04.2018 04:00:00 7,5 4,3 2 1 5 3 WSW 20 0 0,0
20.04.2018 03:00:00 9,5 5,5 1 1 7 4 SE 20 0 0,0
20.04.2018 02:00:00 10,2 5,6 4 2 8 4 NNW 20 0 -
20.04.2018 01:00:00 10,2 5,3 3 1 5 3 W 20 0 0,0
20.04.2018 00:00:00 10,9 5,3 1 1 5 3 NNW 20 0 0,0
19.04.2018 23:00:00 12,2 5,3 3 2 5 3 SSW 20 0 0,0
19.04.2018 22:00:00 15,7 5,9 3 2 5 3 SSW 20 0 0,0
19.04.2018 21:00:00 19,3 5,3 3 2 19 11 ESE 20 45 0,0
19.04.2018 20:00:00 21,3 3,9 11 6 24 13 E 20 45 -
19.04.2018 19:00:00 22,3 4,8 14 8 32 17 ESE 20 59 0,0
19.04.2018 18:00:00 22,2 4,6 13 7 31 17 E 20 46 0,0
19.04.2018 17:00:00 23,1 4,6 14 7 35 19 ENE 20 58 0,0
19.04.2018 16:00:00 22,8 4,8 12 7 34 18 E 20 60 0,0
19.04.2018 15:00:00 22,0 5,0 15 8 34 18 E 20 60 0,0
19.04.2018 14:00:00 20,8 6,7 10 6 29 16 ENE 20 60 -

tt = Température de l'air
td = dewpoint
ff = Vitesse du vent
fx = gusts
dd = Direction du vent
vv = visibility
sd = Ensoleillement
rr = Quantités de précipitations

stations d'obs. à proximité